sensor_id;sensor_type;location;lat;lon;timestamp;P1;durP1;ratioP1;P2;durP2;ratioP2
5955;SDS011;3004;48.080;11.600;2023-05-07T00:00:43;73.77;;;6.07;;
5955;SDS011;3004;48.080;11.600;2023-05-07T00:03:10;73.50;;;5.80;;
5955;SDS011;3004;48.080;11.600;2023-05-07T00:12:54;73.57;;;5.80;;
5955;SDS011;3004;48.080;11.600;2023-05-07T00:19:24;73.60;;;5.80;;
5955;SDS011;3004;48.080;11.600;2023-05-07T00:32:51;73.07;;;5.83;;
5955;SDS011;3004;48.080;11.600;2023-05-07T00:35:23;73.40;;;6.20;;
5955;SDS011;3004;48.080;11.600;2023-05-07T00:37:50;76.50;;;7.90;;
5955;SDS011;3004;48.080;11.600;2023-05-07T00:40:19;73.10;;;5.90;;
5955;SDS011;3004;48.080;11.600;2023-05-07T00:42:50;73.50;;;6.00;;
5955;SDS011;3004;48.080;11.600;2023-05-07T00:45:23;73.70;;;5.90;;
5955;SDS011;3004;48.080;11.600;2023-05-07T00:47:59;73.30;;;5.77;;
5955;SDS011;3004;48.080;11.600;2023-05-07T00:50:32;73.30;;;5.80;;
5955;SDS011;3004;48.080;11.600;2023-05-07T00:53:01;73.07;;;6.00;;
5955;SDS011;3004;48.080;11.600;2023-05-07T00:55:29;73.10;;;5.70;;
5955;SDS011;3004;48.080;11.600;2023-05-07T00:57:57;73.50;;;5.90;;
5955;SDS011;3004;48.080;11.600;2023-05-07T01:00:25;73.97;;;5.93;;
5955;SDS011;3004;48.080;11.600;2023-05-07T01:12:24;73.10;;;5.80;;
5955;SDS011;3004;48.080;11.600;2023-05-07T01:14:55;73.37;;;5.70;;
5955;SDS011;3004;48.080;11.600;2023-05-07T01:17:23;73.20;;;5.70;;
5955;SDS011;3004;48.080;11.600;2023-05-07T01:19:55;73.30;;;5.73;;
5955;SDS011;3004;48.080;11.600;2023-05-07T01:22:32;73.70;;;6.37;;
5955;SDS011;3004;48.080;11.600;2023-05-07T01:25:01;73.67;;;5.87;;
5955;SDS011;3004;48.080;11.600;2023-05-07T01:27:31;73.33;;;5.93;;
5955;SDS011;3004;48.080;11.600;2023-05-07T01:37:14;73.90;;;6.10;;
5955;SDS011;3004;48.080;11.600;2023-05-07T01:39:54;74.07;;;6.00;;
5955;SDS011;3004;48.080;11.600;2023-05-07T01:42:45;76.33;;;7.43;;
5955;SDS011;3004;48.080;11.600;2023-05-07T01:49:00;73.80;;;5.90;;
5955;SDS011;3004;48.080;11.600;2023-05-07T01:54:53;73.50;;;5.77;;
5955;SDS011;3004;48.080;11.600;2023-05-07T01:57:20;72.80;;;5.77;;
5955;SDS011;3004;48.080;11.600;2023-05-07T01:59:47;73.93;;;6.33;;
5955;SDS011;3004;48.080;11.600;2023-05-07T02:02:15;73.20;;;6.00;;
5955;SDS011;3004;48.080;11.600;2023-05-07T02:04:48;73.70;;;6.20;;
5955;SDS011;3004;48.080;11.600;2023-05-07T02:10:45;73.70;;;5.97;;
5955;SDS011;3004;48.080;11.600;2023-05-07T02:13:28;73.70;;;6.00;;
5955;SDS011;3004;48.080;11.600;2023-05-07T03:52:09;73.90;;;7.07;;
5955;SDS011;3004;48.080;11.600;2023-05-07T03:54:53;74.20;;;7.10;;
5955;SDS011;3004;48.080;11.600;2023-05-07T03:58:09;74.00;;;7.07;;
5955;SDS011;3004;48.080;11.600;2023-05-07T04:04:33;73.50;;;7.13;;
5955;SDS011;3004;48.080;11.600;2023-05-07T04:14:30;73.60;;;7.17;;
5955;SDS011;3004;48.080;11.600;2023-05-07T04:20:45;73.70;;;7.10;;
5955;SDS011;3004;48.080;11.600;2023-05-07T04:23:25;73.80;;;7.20;;
5955;SDS011;3004;48.080;11.600;2023-05-07T04:26:09;73.60;;;7.17;;
5955;SDS011;3004;48.080;11.600;2023-05-07T04:28:57;73.70;;;7.27;;
5955;SDS011;3004;48.080;11.600;2023-05-07T04:34:49;73.47;;;7.43;;
5955;SDS011;3004;48.080;11.600;2023-05-07T04:44:13;73.20;;;7.53;;
5955;SDS011;3004;48.080;11.600;2023-05-07T06:14:14;73.20;;;8.03;;
5955;SDS011;3004;48.080;11.600;2023-05-07T06:16:41;73.60;;;8.03;;
5955;SDS011;3004;48.080;11.600;2023-05-07T06:19:08;74.67;;;8.23;;
5955;SDS011;3004;48.080;11.600;2023-05-07T06:21:35;75.57;;;7.80;;
5955;SDS011;3004;48.080;11.600;2023-05-07T06:24:01;75.60;;;7.27;;
5955;SDS011;3004;48.080;11.600;2023-05-07T06:26:28;75.30;;;6.90;;
5955;SDS011;3004;48.080;11.600;2023-05-07T06:28:55;75.07;;;6.70;;
5955;SDS011;3004;48.080;11.600;2023-05-07T06:31:28;74.50;;;6.30;;
5955;SDS011;3004;48.080;11.600;2023-05-07T06:33:57;74.10;;;5.93;;
5955;SDS011;3004;48.080;11.600;2023-05-07T07:24:49;69.17;;;3.50;;
5955;SDS011;3004;48.080;11.600;2023-05-07T07:27:26;69.57;;;3.50;;
5955;SDS011;3004;48.080;11.600;2023-05-07T07:30:02;69.80;;;3.87;;
5955;SDS011;3004;48.080;11.600;2023-05-07T09:06:17;70.40;;;2.23;;
5955;SDS011;3004;48.080;11.600;2023-05-07T09:48:02;67.90;;;1.70;;
5955;SDS011;3004;48.080;11.600;2023-05-07T09:50:57;67.97;;;1.53;;
5955;SDS011;3004;48.080;11.600;2023-05-07T09:54:01;68.33;;;1.60;;
5955;SDS011;3004;48.080;11.600;2023-05-07T09:56:46;70.07;;;2.00;;
5955;SDS011;3004;48.080;11.600;2023-05-07T09:59:38;68.03;;;1.50;;
5955;SDS011;3004;48.080;11.600;2023-05-07T10:02:10;67.90;;;1.47;;
5955;SDS011;3004;48.080;11.600;2023-05-07T10:04:39;67.90;;;1.23;;
5955;SDS011;3004;48.080;11.600;2023-05-07T10:10:11;68.57;;;1.80;;
5955;SDS011;3004;48.080;11.600;2023-05-07T10:12:40;69.10;;;2.17;;
5955;SDS011;3004;48.080;11.600;2023-05-07T10:18:31;67.97;;;1.50;;
5955;SDS011;3004;48.080;11.600;2023-05-07T10:21:08;68.30;;;1.37;;
5955;SDS011;3004;48.080;11.600;2023-05-07T10:23:58;69.17;;;2.20;;
5955;SDS011;3004;48.080;11.600;2023-05-07T10:26:27;67.97;;;1.30;;
5955;SDS011;3004;48.080;11.600;2023-05-07T10:29:01;68.93;;;1.70;;
5955;SDS011;3004;48.080;11.600;2023-05-07T10:31:46;68.87;;;2.10;;
5955;SDS011;3004;48.080;11.600;2023-05-07T10:34:25;68.70;;;1.83;;
5955;SDS011;3004;48.080;11.600;2023-05-07T10:37:41;68.00;;;1.57;;
5955;SDS011;3004;48.080;11.600;2023-05-07T10:46:40;68.60;;;1.87;;
5955;SDS011;3004;48.080;11.600;2023-05-07T10:49:23;68.17;;;1.77;;
5955;SDS011;3004;48.080;11.600;2023-05-07T10:52:20;67.97;;;1.53;;
5955;SDS011;3004;48.080;11.600;2023-05-07T11:01:12;68.00;;;1.40;;
5955;SDS011;3004;48.080;11.600;2023-05-07T11:10:08;69.20;;;1.80;;
5955;SDS011;3004;48.080;11.600;2023-05-07T11:16:16;68.20;;;1.20;;
5955;SDS011;3004;48.080;11.600;2023-05-07T11:18:47;72.70;;;1.90;;
5955;SDS011;3004;48.080;11.600;2023-05-07T11:24:13;68.60;;;1.63;;
5955;SDS011;3004;48.080;11.600;2023-05-07T11:29:30;69.00;;;2.00;;
5955;SDS011;3004;48.080;11.600;2023-05-07T11:32:12;68.27;;;1.50;;
5955;SDS011;3004;48.080;11.600;2023-05-07T11:41:10;68.60;;;1.60;;
5955;SDS011;3004;48.080;11.600;2023-05-07T11:44:01;69.03;;;2.10;;
5955;SDS011;3004;48.080;11.600;2023-05-07T11:53:35;68.37;;;2.03;;
5955;SDS011;3004;48.080;11.600;2023-05-07T11:56:43;69.20;;;2.43;;
5955;SDS011;3004;48.080;11.600;2023-05-07T12:02:49;68.10;;;1.67;;
5955;SDS011;3004;48.080;11.600;2023-05-07T12:05:31;67.97;;;1.57;;
5955;SDS011;3004;48.080;11.600;2023-05-07T12:08:02;68.70;;;1.50;;
5955;SDS011;3004;48.080;11.600;2023-05-07T12:14:06;68.00;;;1.50;;
5955;SDS011;3004;48.080;11.600;2023-05-07T12:16:33;69.87;;;1.87;;
5955;SDS011;3004;48.080;11.600;2023-05-07T12:19:00;68.97;;;2.13;;
5955;SDS011;3004;48.080;11.600;2023-05-07T12:21:34;68.37;;;1.40;;
5955;SDS011;3004;48.080;11.600;2023-05-07T12:27:48;67.70;;;1.70;;
5955;SDS011;3004;48.080;11.600;2023-05-07T12:33:45;69.77;;;2.50;;
5955;SDS011;3004;48.080;11.600;2023-05-07T12:36:17;69.30;;;2.40;;
5955;SDS011;3004;48.080;11.600;2023-05-07T12:39:07;68.27;;;1.57;;
5955;SDS011;3004;48.080;11.600;2023-05-07T12:41:53;68.80;;;1.80;;
5955;SDS011;3004;48.080;11.600;2023-05-07T12:44:22;68.37;;;1.70;;
5955;SDS011;3004;48.080;11.600;2023-05-07T12:47:06;68.77;;;1.80;;
5955;SDS011;3004;48.080;11.600;2023-05-07T12:50:09;69.13;;;2.13;;
5955;SDS011;3004;48.080;11.600;2023-05-07T12:53:03;69.30;;;2.10;;
5955;SDS011;3004;48.080;11.600;2023-05-07T12:58:50;68.17;;;1.80;;
5955;SDS011;3004;48.080;11.600;2023-05-07T13:01:17;71.30;;;2.03;;
5955;SDS011;3004;48.080;11.600;2023-05-07T13:10:36;68.57;;;2.20;;
5955;SDS011;3004;48.080;11.600;2023-05-07T13:13:15;69.50;;;2.63;;
5955;SDS011;3004;48.080;11.600;2023-05-07T13:16:06;68.43;;;1.80;;
5955;SDS011;3004;48.080;11.600;2023-05-07T13:31:39;69.40;;;1.80;;
5955;SDS011;3004;48.080;11.600;2023-05-07T13:34:13;68.00;;;1.40;;
5955;SDS011;3004;48.080;11.600;2023-05-07T13:37:04;68.20;;;1.73;;
5955;SDS011;3004;48.080;11.600;2023-05-07T13:39:40;68.97;;;1.90;;
5955;SDS011;3004;48.080;11.600;2023-05-07T13:42:25;70.07;;;3.17;;
5955;SDS011;3004;48.080;11.600;2023-05-07T13:45:11;68.10;;;1.63;;
5955;SDS011;3004;48.080;11.600;2023-05-07T13:47:56;72.13;;;2.00;;
5955;SDS011;3004;48.080;11.600;2023-05-07T13:50:25;68.40;;;1.83;;
5955;SDS011;3004;48.080;11.600;2023-05-07T13:53:00;68.80;;;1.93;;
5955;SDS011;3004;48.080;11.600;2023-05-07T13:55:40;68.10;;;1.90;;
5955;SDS011;3004;48.080;11.600;2023-05-07T13:58:07;68.70;;;2.27;;
5955;SDS011;3004;48.080;11.600;2023-05-07T14:00:40;67.90;;;1.70;;
5955;SDS011;3004;48.080;11.600;2023-05-07T14:03:11;83.63;;;1.63;;
5955;SDS011;3004;48.080;11.600;2023-05-07T14:05:42;68.30;;;1.43;;
5955;SDS011;3004;48.080;11.600;2023-05-07T14:08:11;68.80;;;2.20;;
5955;SDS011;3004;48.080;11.600;2023-05-07T14:10:48;70.80;;;1.70;;
5955;SDS011;3004;48.080;11.600;2023-05-07T14:13:17;70.27;;;2.10;;
5955;SDS011;3004;48.080;11.600;2023-05-07T14:18:36;70.13;;;1.80;;
5955;SDS011;3004;48.080;11.600;2023-05-07T14:24:10;68.57;;;1.87;;
5955;SDS011;3004;48.080;11.600;2023-05-07T14:26:39;68.70;;;1.70;;
5955;SDS011;3004;48.080;11.600;2023-05-07T14:29:06;68.00;;;1.53;;
5955;SDS011;3004;48.080;11.600;2023-05-07T14:31:33;68.67;;;2.10;;
5955;SDS011;3004;48.080;11.600;2023-05-07T14:34:04;68.17;;;1.60;;
5955;SDS011;3004;48.080;11.600;2023-05-07T14:36:31;68.83;;;2.17;;
5955;SDS011;3004;48.080;11.600;2023-05-07T14:38:58;69.60;;;2.37;;
5955;SDS011;3004;48.080;11.600;2023-05-07T14:41:26;68.60;;;2.00;;
5955;SDS011;3004;48.080;11.600;2023-05-07T14:43:55;68.40;;;1.63;;
5955;SDS011;3004;48.080;11.600;2023-05-07T14:46:24;69.87;;;2.27;;
5955;SDS011;3004;48.080;11.600;2023-05-07T14:48:52;69.07;;;2.10;;
5955;SDS011;3004;48.080;11.600;2023-05-07T14:51:21;68.57;;;1.63;;
5955;SDS011;3004;48.080;11.600;2023-05-07T14:53:49;68.77;;;1.77;;
5955;SDS011;3004;48.080;11.600;2023-05-07T14:56:26;69.03;;;1.77;;
5955;SDS011;3004;48.080;11.600;2023-05-07T14:58:54;67.93;;;1.60;;
5955;SDS011;3004;48.080;11.600;2023-05-07T15:01:21;68.47;;;1.77;;
5955;SDS011;3004;48.080;11.600;2023-05-07T15:03:56;67.97;;;1.67;;
5955;SDS011;3004;48.080;11.600;2023-05-07T15:06:24;68.53;;;1.77;;
5955;SDS011;3004;48.080;11.600;2023-05-07T15:08:58;68.17;;;1.63;;
5955;SDS011;3004;48.080;11.600;2023-05-07T15:11:28;68.23;;;1.70;;
5955;SDS011;3004;48.080;11.600;2023-05-07T15:13:55;70.53;;;1.87;;
5955;SDS011;3004;48.080;11.600;2023-05-07T15:16:31;68.37;;;1.80;;
5955;SDS011;3004;48.080;11.600;2023-05-07T15:19:04;68.63;;;1.77;;
5955;SDS011;3004;48.080;11.600;2023-05-07T15:21:32;67.77;;;1.30;;
5955;SDS011;3004;48.080;11.600;2023-05-07T15:24:01;67.60;;;1.50;;
5955;SDS011;3004;48.080;11.600;2023-05-07T15:26:28;68.57;;;1.77;;
5955;SDS011;3004;48.080;11.600;2023-05-07T15:28:56;68.00;;;1.70;;
5955;SDS011;3004;48.080;11.600;2023-05-07T15:31:23;69.37;;;2.50;;
5955;SDS011;3004;48.080;11.600;2023-05-07T15:34:24;70.17;;;2.23;;
5955;SDS011;3004;48.080;11.600;2023-05-07T15:37:11;68.07;;;1.57;;
5955;SDS011;3004;48.080;11.600;2023-05-07T15:40:16;68.87;;;1.90;;
5955;SDS011;3004;48.080;11.600;2023-05-07T15:42:46;69.20;;;1.90;;
5955;SDS011;3004;48.080;11.600;2023-05-07T15:45:13;68.30;;;1.90;;
5955;SDS011;3004;48.080;11.600;2023-05-07T15:47:52;68.33;;;1.77;;
5955;SDS011;3004;48.080;11.600;2023-05-07T15:50:41;68.53;;;1.70;;
5955;SDS011;3004;48.080;11.600;2023-05-07T15:53:10;68.07;;;1.77;;
5955;SDS011;3004;48.080;11.600;2023-05-07T15:55:39;70.30;;;2.30;;
5955;SDS011;3004;48.080;11.600;2023-05-07T15:58:09;67.40;;;1.30;;
5955;SDS011;3004;48.080;11.600;2023-05-07T16:00:36;67.50;;;1.30;;
5955;SDS011;3004;48.080;11.600;2023-05-07T16:03:07;68.47;;;2.00;;
5955;SDS011;3004;48.080;11.600;2023-05-07T16:05:50;67.83;;;1.47;;
5955;SDS011;3004;48.080;11.600;2023-05-07T16:08:22;68.07;;;1.37;;
5955;SDS011;3004;48.080;11.600;2023-05-07T16:11:02;68.20;;;1.63;;
5955;SDS011;3004;48.080;11.600;2023-05-07T16:13:30;70.60;;;2.17;;
5955;SDS011;3004;48.080;11.600;2023-05-07T16:15:57;67.90;;;1.33;;
5955;SDS011;3004;48.080;11.600;2023-05-07T16:18:38;67.87;;;1.37;;
5955;SDS011;3004;48.080;11.600;2023-05-07T16:21:20;68.17;;;1.70;;
5955;SDS011;3004;48.080;11.600;2023-05-07T16:23:49;67.80;;;1.80;;
5955;SDS011;3004;48.080;11.600;2023-05-07T16:26:17;67.67;;;1.43;;
5955;SDS011;3004;48.080;11.600;2023-05-07T16:28:44;67.93;;;1.40;;
5955;SDS011;3004;48.080;11.600;2023-05-07T16:31:11;69.87;;;2.23;;
5955;SDS011;3004;48.080;11.600;2023-05-07T16:33:38;68.30;;;1.70;;
5955;SDS011;3004;48.080;11.600;2023-05-07T16:36:08;68.07;;;1.50;;
5955;SDS011;3004;48.080;11.600;2023-05-07T16:38:38;70.30;;;2.13;;
5955;SDS011;3004;48.080;11.600;2023-05-07T16:41:13;69.73;;;2.50;;
5955;SDS011;3004;48.080;11.600;2023-05-07T16:43:42;78.07;;;4.60;;
5955;SDS011;3004;48.080;11.600;2023-05-07T16:46:12;68.47;;;2.37;;
5955;SDS011;3004;48.080;11.600;2023-05-07T16:48:42;75.10;;;4.53;;
5955;SDS011;3004;48.080;11.600;2023-05-07T16:51:27;71.10;;;3.20;;
5955;SDS011;3004;48.080;11.600;2023-05-07T16:54:39;76.80;;;2.57;;
5955;SDS011;3004;48.080;11.600;2023-05-07T16:57:41;68.67;;;2.20;;
5955;SDS011;3004;48.080;11.600;2023-05-07T17:00:34;68.47;;;1.80;;
5955;SDS011;3004;48.080;11.600;2023-05-07T17:03:01;67.77;;;1.40;;
5955;SDS011;3004;48.080;11.600;2023-05-07T17:06:41;67.60;;;1.20;;
5955;SDS011;3004;48.080;11.600;2023-05-07T17:09:10;68.13;;;1.40;;
5955;SDS011;3004;48.080;11.600;2023-05-07T17:11:52;68.30;;;1.43;;
5955;SDS011;3004;48.080;11.600;2023-05-07T17:17:56;67.67;;;1.40;;
5955;SDS011;3004;48.080;11.600;2023-05-07T17:39:52;68.70;;;1.53;;
5955;SDS011;3004;48.080;11.600;2023-05-07T17:42:29;67.90;;;1.20;;
5955;SDS011;3004;48.080;11.600;2023-05-07T17:45:00;67.93;;;1.40;;
5955;SDS011;3004;48.080;11.600;2023-05-07T17:47:28;67.57;;;1.10;;
5955;SDS011;3004;48.080;11.600;2023-05-07T17:53:22;67.97;;;1.60;;
5955;SDS011;3004;48.080;11.600;2023-05-07T17:59:36;67.73;;;1.50;;
5955;SDS011;3004;48.080;11.600;2023-05-07T18:02:07;67.87;;;1.63;;
5955;SDS011;3004;48.080;11.600;2023-05-07T18:04:43;67.40;;;1.20;;
5955;SDS011;3004;48.080;11.600;2023-05-07T18:07:36;67.47;;;1.33;;
5955;SDS011;3004;48.080;11.600;2023-05-07T18:17:44;67.60;;;1.20;;
5955;SDS011;3004;48.080;11.600;2023-05-07T18:30:41;70.00;;;1.73;;
5955;SDS011;3004;48.080;11.600;2023-05-07T18:33:30;69.50;;;2.30;;
5955;SDS011;3004;48.080;11.600;2023-05-07T19:00:27;67.40;;;1.20;;
5955;SDS011;3004;48.080;11.600;2023-05-07T19:03:26;67.17;;;1.30;;
5955;SDS011;3004;48.080;11.600;2023-05-07T19:06:26;68.60;;;2.20;;
5955;SDS011;3004;48.080;11.600;2023-05-07T19:08:59;68.63;;;1.90;;
5955;SDS011;3004;48.080;11.600;2023-05-07T19:11:35;67.83;;;1.40;;
5955;SDS011;3004;48.080;11.600;2023-05-07T19:14:16;72.50;;;3.23;;
5955;SDS011;3004;48.080;11.600;2023-05-07T19:17:14;67.43;;;1.40;;
5955;SDS011;3004;48.080;11.600;2023-05-07T19:19:57;67.90;;;2.13;;
5955;SDS011;3004;48.080;11.600;2023-05-07T19:25:55;67.27;;;1.50;;
5955;SDS011;3004;48.080;11.600;2023-05-07T19:28:31;67.77;;;1.83;;
5955;SDS011;3004;48.080;11.600;2023-05-07T19:31:19;67.87;;;1.67;;
5955;SDS011;3004;48.080;11.600;2023-05-07T20:16:43;67.07;;;1.50;;
5955;SDS011;3004;48.080;11.600;2023-05-07T20:54:13;67.67;;;2.30;;
5955;SDS011;3004;48.080;11.600;2023-05-07T21:03:49;67.47;;;2.57;;
5955;SDS011;3004;48.080;11.600;2023-05-07T21:13:05;69.90;;;3.40;;
5955;SDS011;3004;48.080;11.600;2023-05-07T21:15:44;68.67;;;3.27;;
5955;SDS011;3004;48.080;11.600;2023-05-07T21:25:34;68.40;;;2.70;;
5955;SDS011;3004;48.080;11.600;2023-05-07T21:55:16;70.07;;;3.10;;
5955;SDS011;3004;48.080;11.600;2023-05-07T22:21:26;73.80;;;4.00;;
5955;SDS011;3004;48.080;11.600;2023-05-07T22:24:11;70.00;;;3.40;;
5955;SDS011;3004;48.080;11.600;2023-05-07T22:27:15;70.07;;;3.20;;
5955;SDS011;3004;48.080;11.600;2023-05-07T22:30:21;70.77;;;3.60;;
5955;SDS011;3004;48.080;11.600;2023-05-07T22:39:33;70.60;;;3.40;;
5955;SDS011;3004;48.080;11.600;2023-05-07T22:42:23;71.50;;;4.00;;
5955;SDS011;3004;48.080;11.600;2023-05-07T22:45:07;70.93;;;3.50;;
5955;SDS011;3004;48.080;11.600;2023-05-07T22:47:39;70.93;;;3.70;;
5955;SDS011;3004;48.080;11.600;2023-05-07T22:50:07;70.57;;;3.40;;
5955;SDS011;3004;48.080;11.600;2023-05-07T22:52:46;70.73;;;3.87;;
5955;SDS011;3004;48.080;11.600;2023-05-07T22:55:17;70.97;;;4.03;;
5955;SDS011;3004;48.080;11.600;2023-05-07T22:57:58;70.60;;;4.10;;
5955;SDS011;3004;48.080;11.600;2023-05-07T23:00:50;70.57;;;3.60;;
5955;SDS011;3004;48.080;11.600;2023-05-07T23:03:34;71.30;;;4.30;;
5955;SDS011;3004;48.080;11.600;2023-05-07T23:06:01;70.27;;;3.60;;
5955;SDS011;3004;48.080;11.600;2023-05-07T23:08:28;70.10;;;3.40;;
5955;SDS011;3004;48.080;11.600;2023-05-07T23:11:00;70.60;;;3.90;;
5955;SDS011;3004;48.080;11.600;2023-05-07T23:13:27;70.90;;;3.70;;
5955;SDS011;3004;48.080;11.600;2023-05-07T23:15:54;71.27;;;3.87;;
5955;SDS011;3004;48.080;11.600;2023-05-07T23:18:28;71.03;;;3.90;;
5955;SDS011;3004;48.080;11.600;2023-05-07T23:20:58;71.20;;;3.80;;
5955;SDS011;3004;48.080;11.600;2023-05-07T23:23:34;71.60;;;4.40;;
5955;SDS011;3004;48.080;11.600;2023-05-07T23:26:14;71.50;;;4.20;;
5955;SDS011;3004;48.080;11.600;2023-05-07T23:28:50;71.83;;;4.00;;
5955;SDS011;3004;48.080;11.600;2023-05-07T23:31:18;71.90;;;4.30;;
5955;SDS011;3004;48.080;11.600;2023-05-07T23:33:47;71.70;;;4.37;;
5955;SDS011;3004;48.080;11.600;2023-05-07T23:39:11;71.40;;;3.87;;
5955;SDS011;3004;48.080;11.600;2023-05-07T23:41:42;71.40;;;4.30;;
5955;SDS011;3004;48.080;11.600;2023-05-07T23:44:25;72.27;;;4.70;;
5955;SDS011;3004;48.080;11.600;2023-05-07T23:53:44;72.90;;;4.60;;
5955;SDS011;3004;48.080;11.600;2023-05-07T23:56:17;71.67;;;4.67;;
5955;SDS011;3004;48.080;11.600;2023-05-07T23:58:44;71.60;;;4.10;;
